Time;durP1;ratioP1;P1;durP2;ratioP2;P2;SDS_P1;SDS_P2;PMS_P1;PMS_P2;Temp;Humidity;BMP_temperature;BMP_pressure;BME280_temperature;BME280_humidity;BME280_pressure;Samples;Min_cycle;Max_cycle;Signal;HPM_P1;HPM_P2
2022/05/20 00:02:16;;;;;;;2.40;2.20;;;24.40;43.80;;;-147.20;100.00;58430.41;5093838;28;20044;-18
2022/05/20 00:04:42;;;;;;;3.38;2.50;;;24.40;43.80;;;-147.20;100.00;58430.41;5093915;28;20092;-18
2022/05/20 00:07:09;;;;;;;2.10;2.00;;;24.40;43.70;;;-147.20;100.00;58430.41;5094284;28;20048;-18
2022/05/20 00:09:36;;;;;;;2.30;2.10;;;24.40;43.70;;;-147.20;100.00;58430.41;5093605;28;20070;-18
2022/05/20 00:12:04;;;;;;;2.70;2.50;;;24.40;43.80;;;-147.20;100.00;58430.41;5093798;28;20051;-18
2022/05/20 00:14:32;;;;;;;2.63;2.42;;;24.40;43.80;;;-147.20;100.00;58430.41;5093766;28;20048;-19
2022/05/20 00:17:01;;;;;;;2.50;2.30;;;24.40;43.80;;;-147.20;100.00;58430.41;5094192;28;20350;-18
2022/05/20 00:19:27;;;;;;;2.45;2.25;;;24.40;43.80;;;-147.20;100.00;58430.41;5093886;28;20055;-18
2022/05/20 00:21:53;;;;;;;2.30;2.10;;;24.40;43.70;;;-147.20;100.00;58430.41;5094336;28;20048;-18
2022/05/20 00:24:19;;;;;;;2.60;2.40;;;24.40;43.80;;;-147.20;100.00;58430.41;5094079;28;20400;-18
2022/05/20 00:26:45;;;;;;;2.60;2.40;;;24.40;43.80;;;-147.20;100.00;58430.41;5093888;28;20081;-18
2022/05/20 00:29:11;;;;;;;2.97;2.40;;;24.40;43.90;;;-147.20;100.00;58430.41;5093836;28;20450;-18
2022/05/20 00:31:37;;;;;;;2.42;2.22;;;24.30;44.00;;;-147.20;100.00;58430.41;5093870;28;20092;-18
2022/05/20 00:34:02;;;;;;;3.20;2.40;;;24.30;44.00;;;-147.20;100.00;58430.41;5093839;28;20044;-18
2022/05/20 00:36:28;;;;;;;2.20;2.00;;;24.30;43.90;;;-147.20;100.00;58430.41;5094436;28;20052;-18
2022/05/20 00:38:54;;;;;;;2.70;2.50;;;24.30;44.10;;;-147.20;100.00;58430.41;5093845;28;20063;-18
2022/05/20 00:41:20;;;;;;;2.47;2.25;;;24.40;44.00;;;-147.20;100.00;58430.41;5093877;28;20051;-18
2022/05/20 00:43:48;;;;;;;2.95;2.65;;;24.40;44.10;;;-147.20;100.00;58430.41;5094113;28;20052;-18
2022/05/20 00:46:25;;;;;;;2.30;2.10;;;24.40;44.00;;;-147.20;100.00;58430.41;5093787;28;20044;-19
2022/05/20 00:48:59;;;;;;;2.60;2.40;;;24.30;44.00;;;-147.20;100.00;58430.41;5093977;28;20503;-18
2022/05/20 00:51:52;;;;;;;2.70;2.50;;;24.30;44.10;;;-147.20;100.00;58430.41;5093772;28;20182;-18
2022/05/20 00:54:25;;;;;;;2.58;2.25;;;24.30;44.10;;;-147.20;100.00;58430.41;5093339;28;20059;-18
2022/05/20 00:57:08;;;;;;;2.80;2.50;;;24.30;44.20;;;-147.20;100.00;58430.41;5075211;28;20510;-17
2022/05/20 00:59:37;;;;;;;2.67;2.47;;;24.30;44.70;;;-147.20;100.00;58430.41;5093636;28;20059;-18
2022/05/20 01:02:09;;;;;;;2.13;2.03;;;24.30;44.20;;;-147.20;100.00;58430.41;5075535;28;20091;-18
2022/05/20 01:04:37;;;;;;;2.50;2.30;;;24.30;44.10;;;-147.20;100.00;58430.41;5075725;28;20143;-19
2022/05/20 01:07:04;;;;;;;2.60;2.40;;;24.30;44.20;;;-147.20;100.00;58430.41;5073688;28;20044;-18
2022/05/20 01:09:30;;;;;;;2.42;2.22;;;24.30;44.20;;;-147.20;100.00;58430.41;5093416;28;20072;-18
2022/05/20 01:11:56;;;;;;;2.92;2.55;;;24.30;44.20;;;-147.20;100.00;58430.41;5093487;28;20391;-18
2022/05/20 01:14:25;;;;;;;2.95;2.65;;;24.30;44.30;;;-147.20;100.00;58430.41;5093698;28;20101;-18
2022/05/20 01:16:52;;;;;;;3.53;2.58;;;24.30;44.30;;;-147.20;100.00;58430.41;5074071;28;20466;-18
2022/05/20 01:19:38;;;;;;;2.78;2.50;;;24.30;44.20;;;-147.20;100.00;58430.41;5093240;28;20048;-18
2022/05/20 01:22:09;;;;;;;3.25;2.47;;;24.30;44.20;;;-147.20;100.00;58430.41;5075272;28;20048;-18
2022/05/20 01:24:35;;;;;;;3.47;2.72;;;24.30;44.40;;;-147.20;100.00;58430.41;5073918;28;20045;-18
2022/05/20 01:27:00;;;;;;;2.42;2.22;;;24.30;44.40;;;-147.20;100.00;58430.41;5093603;28;20093;-19
2022/05/20 01:29:27;;;;;;;2.90;2.63;;;24.30;44.40;;;-147.20;100.00;58430.41;5074848;28;20056;-18
2022/05/20 01:31:52;;;;;;;3.00;2.70;;;24.30;44.60;;;-147.20;100.00;58430.41;5093614;28;20051;-18
2022/05/20 01:34:20;;;;;;;3.67;2.97;;;24.30;44.50;;;-147.20;100.00;58430.41;5093633;28;20056;-18
2022/05/20 01:36:46;;;;;;;2.75;2.55;;;24.30;44.50;;;-147.20;100.00;58430.41;5093338;28;20357;-18
2022/05/20 01:39:12;;;;;;;2.83;2.63;;;24.20;44.40;;;-147.20;100.00;58430.41;5093145;28;20082;-19
2022/05/20 01:42:02;;;;;;;3.20;2.85;;;24.20;44.40;;;-147.20;100.00;58430.41;5092984;28;20050;-18
2022/05/20 01:44:52;;;;;;;2.60;2.40;;;24.20;44.50;;;-147.20;100.00;58430.41;5075196;28;20097;-19
2022/05/20 01:47:37;;;;;;;3.00;2.80;;;24.30;44.50;;;-147.20;100.00;58430.41;5072800;28;20135;-19
2022/05/20 01:50:13;;;;;;;3.28;2.40;;;24.20;44.50;;;-147.20;100.00;58430.41;5092882;28;20400;-18
2022/05/20 01:53:26;;;;;;;3.08;2.80;;;24.20;44.70;;;-147.20;100.00;58430.41;5073484;28;20054;-19
2022/05/20 01:56:00;;;;;;;2.88;2.58;;;24.20;44.60;;;-147.20;100.00;58430.41;4974714;28;20526;-18
2022/05/20 01:58:48;;;;;;;3.35;2.42;;;24.30;44.70;;;-147.20;100.00;58430.41;4974896;28;20141;-18
2022/05/20 02:01:26;;;;;;;3.08;2.78;;;24.20;44.50;;;-147.20;100.00;58430.41;5063065;28;20165;-18
2022/05/20 02:04:08;;;;;;;3.80;2.95;;;24.20;44.50;;;-147.20;100.00;58430.41;5092829;28;20081;-18
2022/05/20 02:06:40;;;;;;;2.83;2.63;;;24.30;44.70;;;-147.20;100.00;58430.41;5074185;28;20422;-18
2022/05/20 02:09:09;;;;;;;;;;;24.20;44.60;;;-147.20;100.00;58430.41;5074910;28;20052;-18
2022/05/20 02:11:54;;;;;;;2.95;2.65;;;24.20;44.60;;;-147.20;100.00;58430.41;5075067;28;19916;-18
2022/05/20 02:14:40;;;;;;;2.40;2.20;;;24.30;44.60;;;-147.20;100.00;58430.41;5092621;28;20399;-20
2022/05/20 02:17:18;;;;;;;3.17;2.88;;;24.20;44.60;;;-147.20;100.00;58430.41;5074255;28;20139;-19
2022/05/20 02:20:17;;;;;;;3.10;2.80;;;24.20;44.60;;;-147.20;100.00;58430.41;5074051;28;20086;-18
2022/05/20 02:23:02;;;;;;;2.88;2.50;;;24.20;44.70;;;-147.20;100.00;58430.41;5041205;28;20477;-19
2022/05/20 02:25:35;;;;;;;2.72;2.50;;;24.20;44.70;;;-147.20;100.00;58430.41;5078619;28;20536;-18
2022/05/20 02:28:09;;;;;;;2.90;2.70;;;24.20;44.60;;;-147.20;100.00;58430.41;5076862;28;20545;-19
2022/05/20 02:30:35;;;;;;;2.70;2.50;;;24.20;44.60;;;-147.20;100.00;58430.41;5078221;28;20096;-18
2022/05/20 02:33:11;;;;;;;3.28;2.72;;;24.20;44.70;;;-147.20;100.00;58430.41;5096005;28;20044;-18
2022/05/20 02:35:39;;;;;;;2.78;2.58;;;24.20;44.70;;;-147.20;100.00;58430.41;5078163;28;20044;-19
2022/05/20 02:38:19;;;;;;;3.13;2.80;;;24.20;45.30;;;-147.20;100.00;58430.41;5095832;28;20048;-18
2022/05/20 02:40:53;;;;;;;2.80;2.60;;;24.20;44.70;;;-147.20;100.00;58430.41;5096038;28;20070;-18
2022/05/20 02:43:21;;;;;;;3.00;2.80;;;24.20;44.70;;;-147.20;100.00;58430.41;5096232;28;20074;-18
2022/05/20 02:45:49;;;;;;;3.17;2.80;;;24.20;44.70;;;-147.20;100.00;58430.41;5096426;28;20500;-19
2022/05/20 02:48:19;;;;;;;3.17;2.83;;;24.20;44.80;;;-147.20;100.00;58430.41;5077540;28;20044;-18
2022/05/20 02:50:45;;;;;;;2.97;2.67;;;24.20;44.80;;;-147.20;100.00;58430.41;5095835;28;20411;-19
2022/05/20 02:53:11;;;;;;;3.10;2.80;;;24.20;44.80;;;-147.20;100.00;58430.41;5095758;28;20510;-19
2022/05/20 02:55:38;;;;;;;2.75;2.55;;;24.20;44.80;;;-147.20;100.00;58430.41;5096141;28;20055;-19
2022/05/20 02:58:04;;;;;;;3.08;2.83;;;24.20;44.80;;;-147.20;100.00;58430.41;5095485;28;20134;-18
2022/05/20 03:05:59;;;;;;;2.70;2.50;;;24.20;44.80;;;-147.20;100.00;58430.41;5077652;28;20043;-19
2022/05/20 03:08:25;;;;;;;2.83;2.63;;;24.20;44.90;;;-147.20;100.00;58430.41;5077829;28;20044;-18
2022/05/20 03:10:51;;;;;;;3.00;2.63;;;24.20;44.80;;;-147.20;100.00;58430.41;5095440;28;20097;-18
2022/05/20 03:13:17;;;;;;;2.97;2.70;;;24.20;44.80;;;-147.20;100.00;58430.41;5095782;28;20484;-18
2022/05/20 03:15:44;;;;;;;3.30;2.80;;;24.20;44.80;;;-147.20;100.00;58430.41;5095323;28;20085;-20
2022/05/20 03:18:13;;;;;;;3.13;2.83;;;24.20;45.40;;;-147.20;100.00;58430.41;5095162;28;20056;-18
2022/05/20 03:20:41;;;;;;;2.95;2.65;;;24.20;44.80;;;-147.20;100.00;58430.41;5095584;28;20082;-19
2022/05/20 03:23:09;;;;;;;2.85;2.58;;;24.10;44.80;;;-147.20;100.00;58430.41;5095154;28;20044;-18
2022/05/20 03:25:38;;;;;;;3.28;2.97;;;24.20;44.80;;;-147.20;100.00;58430.41;5077069;28;20081;-18
2022/05/20 03:28:04;;;;;;;2.97;2.67;;;24.20;44.90;;;-147.20;100.00;58430.41;5094903;28;20047;-18
2022/05/20 03:30:30;;;;;;;2.72;2.53;;;24.20;44.90;;;-147.20;100.00;58430.41;5095299;28;20062;-18
2022/05/20 03:32:56;;;;;;;3.00;2.50;;;24.20;44.90;;;-147.20;100.00;58430.41;5095148;28;20052;-18
2022/05/20 03:35:22;;;;;;;3.45;3.15;;;24.20;44.90;;;-147.20;100.00;58430.41;5095352;28;20044;-18
2022/05/20 03:37:48;;;;;;;3.28;2.95;;;24.20;44.90;;;-147.20;100.00;58430.41;5095101;28;20056;-19
2022/05/20 03:40:13;;;;;;;3.10;2.80;;;24.20;44.90;;;-147.20;100.00;58430.41;5095010;28;20068;-19
2022/05/20 03:42:39;;;;;;;2.83;2.63;;;24.10;44.90;;;-147.20;100.00;58430.41;5094799;28;20053;-19
2022/05/20 03:45:06;;;;;;;2.55;2.35;;;24.10;44.90;;;-147.20;100.00;58430.41;5094783;28;20052;-18
2022/05/20 03:47:32;;;;;;;3.22;2.92;;;24.10;44.90;;;-147.20;100.00;58430.41;5076332;28;20541;-18
2022/05/20 03:50:00;;;;;;;3.05;2.75;;;24.20;44.90;;;-147.20;100.00;58430.41;5094755;28;20044;-19
2022/05/20 03:52:26;;;;;;;3.03;2.80;;;24.10;44.90;;;-147.20;100.00;58430.41;5094885;28;20052;-18
2022/05/20 03:54:51;;;;;;;3.30;3.00;;;24.10;44.90;;;-147.20;100.00;58430.41;5095015;28;20430;-18
2022/05/20 03:57:17;;;;;;;3.25;2.95;;;24.20;45.00;;;-147.20;100.00;58430.41;5095002;28;20103;-18
2022/05/20 03:59:43;;;;;;;2.80;2.60;;;24.10;45.00;;;-147.20;100.00;58430.41;5094980;28;20051;-18
2022/05/20 04:02:12;;;;;;;2.88;2.67;;;24.10;44.90;;;-147.20;100.00;58430.41;5094604;28;20097;-18
2022/05/20 04:04:44;;;;;;;2.92;2.70;;;24.10;45.00;;;-147.20;100.00;58430.41;5094621;28;20408;-18
2022/05/20 04:07:17;;;;;;;2.80;2.60;;;24.10;45.00;;;-147.20;100.00;58430.41;5094622;28;20052;-18
2022/05/20 04:09:43;;;;;;;2.95;2.47;;;24.20;45.00;;;-147.20;100.00;58430.41;5094407;28;20060;-18
2022/05/20 04:12:22;;;;;;;4.18;2.83;;;24.20;45.00;;;-147.20;100.00;58430.41;5094551;28;20549;-18
2022/05/20 04:14:48;;;;;;;3.38;2.92;;;24.10;45.00;;;-147.20;100.00;58430.41;5075728;28;20052;-18
2022/05/20 04:17:14;;;;;;;2.95;2.75;;;24.10;45.00;;;-147.20;100.00;58430.41;5094197;28;20052;-18
2022/05/20 04:19:39;;;;;;;2.97;2.55;;;24.10;45.00;;;-147.20;100.00;58430.41;5094412;28;20411;-18
2022/05/20 04:22:08;;;;;;;3.63;3.15;;;24.10;45.00;;;-147.20;100.00;58430.41;5094295;28;20055;-18
2022/05/20 04:24:35;;;;;;;3.45;2.95;;;24.10;45.00;;;-147.20;100.00;58430.41;5076142;28;20148;-18
2022/05/20 04:27:01;;;;;;;2.83;2.60;;;24.20;45.10;;;-147.20;100.00;58430.41;5094168;28;20056;-18
2022/05/20 04:29:27;;;;;;;3.22;2.80;;;24.20;45.00;;;-147.20;100.00;58430.41;5094038;28;20063;-18
2022/05/20 04:31:53;;;;;;;2.67;2.47;;;24.10;45.00;;;-147.20;100.00;58430.41;5094064;28;20059;-18
2022/05/20 04:34:20;;;;;;;2.60;2.40;;;24.10;45.00;;;-147.20;100.00;58430.41;5094088;28;20458;-19
2022/05/20 04:36:46;;;;;;;3.15;2.85;;;24.10;45.00;;;-147.20;100.00;58430.41;5094389;28;20131;-19
2022/05/20 04:39:12;;;;;;;3.20;2.78;;;24.10;45.00;;;-147.20;100.00;58430.41;5094044;28;20064;-18
2022/05/20 04:47:18;;;;;;;2.90;2.70;;;24.10;45.10;;;-147.20;100.00;58430.41;5093833;28;20526;-19
2022/05/20 04:49:43;;;;;;;3.28;2.97;;;24.10;45.10;;;-147.20;100.00;58430.41;5072684;28;20059;-18
2022/05/20 04:52:09;;;;;;;2.67;2.45;;;24.10;45.10;;;-147.20;100.00;58430.41;5094343;28;20043;-18
2022/05/20 04:54:50;;;;;;;3.38;3.00;;;24.10;45.10;;;-147.20;100.00;58430.41;5093977;28;20044;-18
2022/05/20 04:57:44;;;;;;;2.85;2.65;;;24.20;45.20;;;-147.20;100.00;58430.41;5094125;28;20051;-18
2022/05/20 05:00:15;;;;;;;2.58;2.38;;;24.10;45.10;;;-147.20;100.00;58430.41;5093634;28;20105;-19
2022/05/20 05:02:41;;;;;;;3.15;2.90;;;24.20;45.10;;;-147.20;100.00;58430.41;5094174;28;20048;-18
2022/05/20 05:05:11;;;;;;;2.65;2.45;;;24.20;45.10;;;-147.20;100.00;58430.41;5093553;28;20057;-18
2022/05/20 05:07:40;;;;;;;2.78;2.58;;;24.20;45.10;;;-147.20;100.00;58430.41;5093400;28;20044;-18
2022/05/20 05:10:07;;;;;;;2.92;2.63;;;24.20;45.10;;;-147.20;100.00;58430.41;5093512;28;20464;-19
2022/05/20 05:12:33;;;;;;;2.80;2.53;;;24.20;45.00;;;-147.20;100.00;58430.41;5093464;28;20135;-18
2022/05/20 05:14:59;;;;;;;3.00;2.80;;;24.20;45.00;;;-147.20;100.00;58430.41;5093542;28;20403;-19
2022/05/20 05:20:16;;;;;;;3.28;2.60;;;24.20;45.00;;;-147.20;100.00;58430.41;5092045;28;20108;-18
2022/05/20 05:22:42;;;;;;;4.40;2.78;;;24.20;45.00;;;-147.20;100.00;58430.41;5093589;28;20044;-18
2022/05/20 05:25:10;;;;;;;2.80;2.60;;;24.20;44.90;;;-147.20;100.00;58430.41;5093392;28;20044;-19
2022/05/20 05:27:36;;;;;;;2.90;2.60;;;24.30;44.90;;;-147.20;100.00;58430.41;5073774;28;20068;-19
2022/05/20 05:30:03;;;;;;;2.60;2.40;;;24.30;44.80;;;-147.20;100.00;58430.41;5058078;28;20036;-19
2022/05/20 05:32:29;;;;;;;3.05;2.63;;;24.30;44.80;;;-147.20;100.00;58430.41;5093059;28;20056;-18
2022/05/20 05:34:55;;;;;;;2.70;2.50;;;24.40;44.80;;;-147.20;100.00;58430.41;5058443;28;20044;-18
2022/05/20 05:37:20;;;;;;;2.75;2.55;;;24.40;44.70;;;-147.20;100.00;58430.41;5093197;28;20054;-18
2022/05/20 05:39:46;;;;;;;2.70;2.50;;;24.40;44.80;;;-147.20;100.00;58430.41;5093649;28;20064;-19
2022/05/20 05:42:12;;;;;;;3.15;2.85;;;24.40;44.80;;;-147.20;100.00;58430.41;5092865;28;20048;-18
2022/05/20 05:44:38;;;;;;;2.45;2.22;;;24.40;44.70;;;-147.20;100.00;58430.41;5093091;28;20048;-19
2022/05/20 05:47:04;;;;;;;2.67;2.47;;;24.50;45.10;;;-147.20;100.00;58430.41;5092985;28;20055;-18
2022/05/20 05:49:30;;;;;;;2.58;2.38;;;24.50;44.50;;;-147.20;100.00;58430.41;5092776;28;20117;-18
2022/05/20 05:51:56;;;;;;;2.72;2.53;;;24.60;44.90;;;-147.20;100.00;58430.41;5092933;28;20054;-19
2022/05/20 05:54:22;;;;;;;2.67;2.45;;;24.70;44.80;;;-147.20;100.00;58430.41;5091637;28;20407;-19
2022/05/20 05:56:49;;;;;;;3.95;2.53;;;24.60;44.20;;;-147.20;100.00;58430.41;5092988;28;20052;-18
2022/05/20 05:59:15;;;;;;;2.60;2.40;;;24.60;44.20;;;-147.20;100.00;58430.41;5092608;28;20052;-19
2022/05/20 06:01:40;;;;;;;2.50;2.30;;;24.60;44.20;;;-147.20;100.00;58430.41;5092790;28;20416;-19
2022/05/20 06:04:07;;;;;;;2.45;2.25;;;24.60;44.20;;;-147.20;100.00;58430.41;5092520;28;20048;-18
2022/05/20 06:06:32;;;;;;;2.70;2.50;;;24.70;44.20;;;-147.20;100.00;58430.41;5073929;28;20044;-19
2022/05/20 06:08:58;;;;;;;2.97;2.67;;;24.70;44.10;;;-147.20;100.00;58430.41;5093057;28;20121;-18
2022/05/20 06:11:24;;;;;;;3.80;2.50;;;24.70;44.00;;;-147.20;100.00;58430.41;5092485;28;20071;-19
2022/05/20 06:13:49;;;;;;;2.40;2.20;;;24.70;44.00;;;-147.20;100.00;58430.41;5074234;28;20048;-19
2022/05/20 06:16:21;;;;;;;2.70;2.38;;;24.70;44.10;;;-147.20;100.00;58430.41;5092267;28;20040;-19
2022/05/20 06:18:48;;;;;;;4.25;2.80;;;24.70;44.10;;;-147.20;100.00;58430.41;5092392;28;20098;-19
2022/05/20 06:21:13;;;;;;;3.00;2.67;;;24.70;44.10;;;-147.20;100.00;58430.41;5092342;28;20051;-19
2022/05/20 06:23:40;;;;;;;2.60;2.40;;;24.70;44.60;;;-147.20;100.00;58430.41;5092705;28;20079;-19
2022/05/20 06:26:05;;;;;;;2.50;2.30;;;24.70;44.10;;;-147.20;100.00;58430.41;5092545;28;20044;-19
2022/05/20 06:28:31;;;;;;;2.97;2.70;;;24.70;44.00;;;-147.20;100.00;58430.41;5091961;28;20484;-19
2022/05/20 06:30:57;;;;;;;2.60;2.40;;;24.70;44.00;;;-147.20;100.00;58430.41;5092084;28;20058;-18
2022/05/20 06:33:24;;;;;;;2.58;2.38;;;24.70;44.00;;;-147.20;100.00;58430.41;5092356;28;20048;-18
2022/05/20 06:41:19;;;;;;;2.60;2.40;;;24.90;43.80;;;-147.20;100.00;58430.41;5092420;28;20048;-18
2022/05/20 06:43:45;;;;;;;2.65;2.17;;;24.90;43.60;;;-147.20;100.00;58430.41;5092192;28;20502;-17
2022/05/20 06:46:10;;;;;;;3.08;2.72;;;24.90;43.60;;;-147.20;100.00;58430.41;5092013;28;20073;-18
2022/05/20 06:48:49;;;;;;;2.63;2.33;;;24.90;43.60;;;-147.20;100.00;58430.41;5073806;28;20127;-18
2022/05/20 06:51:23;;;;;;;3.42;2.50;;;24.90;43.70;;;-147.20;100.00;58430.41;5092477;28;20051;-18
2022/05/20 06:53:54;;;;;;;2.88;2.45;;;24.90;43.70;;;-147.20;100.00;58430.41;5091991;28;20134;-18
2022/05/20 06:56:24;;;;;;;3.67;2.70;;;24.80;43.70;;;-147.20;100.00;58430.41;5092209;28;20044;-18
2022/05/20 06:58:51;;;;;;;2.97;2.30;;;24.80;44.20;;;-147.20;100.00;58430.41;5092460;28;20484;-18
2022/05/20 07:01:17;;;;;;;2.45;2.25;;;24.80;43.70;;;-147.20;100.00;58430.41;5091829;28;20079;-18
2022/05/20 07:03:43;;;;;;;3.25;2.50;;;24.80;43.70;;;-147.20;100.00;58430.41;5091716;28;20048;-18
2022/05/20 07:06:11;;;;;;;2.28;2.08;;;24.80;43.70;;;-147.20;100.00;58430.41;5093146;28;20141;-19
2022/05/20 07:08:37;;;;;;;2.85;2.65;;;24.80;43.80;;;-147.20;100.00;58430.41;5075935;28;20048;-18
2022/05/20 07:11:04;;;;;;;2.30;2.10;;;24.80;43.70;;;-147.20;100.00;58430.41;5095195;28;20397;-18
2022/05/20 07:13:31;;;;;;;2.83;2.50;;;24.80;43.60;;;-147.20;100.00;58430.41;5095495;28;20395;-18
2022/05/20 07:15:57;;;;;;;2.55;2.35;;;24.80;43.70;;;-147.20;100.00;58430.41;5095384;28;20051;-19
2022/05/20 07:18:25;;;;;;;2.72;2.50;;;24.80;43.70;;;-147.20;100.00;58430.41;5095112;28;20131;-18
2022/05/20 07:20:51;;;;;;;2.67;2.35;;;24.80;43.60;;;-147.20;100.00;58430.41;5094927;28;20059;-18
2022/05/20 07:23:17;;;;;;;2.42;2.22;;;24.80;43.70;;;-147.20;100.00;58430.41;5095231;28;20392;-18
2022/05/20 07:25:43;;;;;;;3.28;2.20;;;24.90;43.70;;;-147.20;100.00;58430.41;5094990;28;20048;-18
2022/05/20 07:28:09;;;;;;;2.90;2.35;;;24.90;43.60;;;-147.20;100.00;58430.41;5094992;28;20044;-18
2022/05/20 07:30:35;;;;;;;2.50;2.30;;;24.90;43.60;;;-147.20;100.00;58430.41;5095206;28;20052;-18
2022/05/20 07:33:01;;;;;;;3.10;2.40;;;24.90;43.50;;;-147.20;100.00;58430.41;5094868;28;20135;-18
2022/05/20 07:35:28;;;;;;;1.98;1.83;;;24.90;43.50;;;-147.20;100.00;58430.41;5095176;28;20058;-18
2022/05/20 07:37:54;;;;;;;2.50;2.13;;;25.00;43.50;;;-147.20;100.00;58430.41;5094848;28;20047;-18
2022/05/20 07:40:21;;;;;;;2.53;2.33;;;25.10;43.30;;;-147.20;100.00;58430.41;5094858;28;20052;-18
2022/05/20 07:42:47;;;;;;;2.42;2.22;;;25.20;43.10;;;-147.20;100.00;58430.41;5094734;28;20044;-18
2022/05/20 07:45:15;;;;;;;2.45;2.25;;;25.20;42.90;;;-147.20;100.00;58430.41;5094890;28;20052;-18
2022/05/20 07:47:42;;;;;;;2.35;2.15;;;25.30;42.80;;;-147.20;100.00;58430.41;5094452;28;20044;-18
2022/05/20 07:50:09;;;;;;;3.38;2.60;;;25.40;42.70;;;-147.20;100.00;58430.41;5094467;28;20043;-18
2022/05/20 07:55:31;;;;;;;2.40;2.20;;;25.40;42.70;;;-147.20;100.00;58430.41;5094326;28;20093;-18
2022/05/20 07:57:57;;;;;;;3.72;2.40;;;25.40;42.70;;;-147.20;100.00;58430.41;5076215;28;20052;-18
2022/05/20 08:00:24;;;;;;;2.67;2.10;;;25.50;42.60;;;-147.20;100.00;58430.41;5094284;28;20059;-18
2022/05/20 08:02:52;;;;;;;2.30;2.20;;;25.50;42.40;;;-147.20;100.00;58430.41;5094585;28;20075;-20
2022/05/20 08:05:24;;;;;;;2.38;2.17;;;25.50;42.30;;;-147.20;100.00;58430.41;5093890;28;20040;-18
2022/05/20 08:07:50;;;;;;;;;;;25.50;42.40;;;-147.20;100.00;58430.41;5076806;28;20384;-19
2022/05/20 08:10:22;;;;;;;2.22;2.03;;;25.50;42.40;;;-147.20;100.00;58430.41;5094233;28;19923;-19
2022/05/20 08:12:49;;;;;;;2.30;2.10;;;25.60;42.30;;;-147.20;100.00;58430.41;5094296;28;20054;-19
2022/05/20 08:15:17;;;;;;;2.30;2.10;;;25.50;42.30;;;-147.20;100.00;58430.41;5076151;28;20488;-19
2022/05/20 08:17:43;;;;;;;2.30;2.10;;;25.40;42.50;;;-147.20;100.00;58430.41;5093404;28;20472;-19
2022/05/20 08:20:18;;;;;;;2.20;2.00;;;25.40;42.60;;;-147.20;100.00;58430.41;5094559;28;20070;-18
2022/05/20 08:22:44;;;;;;;2.22;2.03;;;25.30;42.60;;;-147.20;100.00;58430.41;5074495;28;20098;-19
2022/05/20 08:25:10;;;;;;;1.90;1.80;;;25.30;42.60;;;-147.20;100.00;58430.41;5094215;28;20548;-18
2022/05/20 08:27:35;;;;;;;2.38;2.17;;;25.30;42.60;;;-147.20;100.00;58430.41;5075343;28;20060;-18
2022/05/20 08:30:13;;;;;;;2.35;2.15;;;25.30;42.60;;;-147.20;100.00;58430.41;5094368;28;20052;-19
2022/05/20 08:32:38;;;;;;;2.20;2.00;;;25.30;42.60;;;-147.20;100.00;58430.41;5094325;28;20051;-19
2022/05/20 08:35:05;;;;;;;2.25;2.05;;;25.30;42.50;;;-147.20;100.00;58430.41;5074901;28;20400;-20
2022/05/20 08:37:33;;;;;;;2.38;2.15;;;25.30;42.60;;;-147.20;100.00;58430.41;5094053;28;20048;-19
2022/05/20 08:40:00;;;;;;;2.30;2.10;;;25.30;42.60;;;-147.20;100.00;58430.41;5093917;28;20507;-19
2022/05/20 08:42:30;;;;;;;2.50;2.30;;;25.30;42.60;;;-147.20;100.00;58430.41;5094231;28;20549;-19
2022/05/20 08:44:57;;;;;;;2.33;2.13;;;25.30;42.70;;;-147.20;100.00;58430.41;5075706;28;20395;-20
2022/05/20 08:47:29;;;;;;;2.20;2.00;;;25.30;42.70;;;-147.20;100.00;58430.41;5058898;28;20048;-18
2022/05/20 08:49:59;;;;;;;2.20;2.00;;;25.30;42.70;;;-147.20;100.00;58430.41;5075894;28;20052;-18
2022/05/20 08:52:26;;;;;;;3.42;2.28;;;25.30;42.70;;;-147.20;100.00;58430.41;5093654;28;20048;-19
2022/05/20 08:54:52;;;;;;;2.20;2.00;;;25.20;42.60;;;-147.20;100.00;58430.41;5093810;28;20048;-18
2022/05/20 08:57:33;;;;;;;2.53;2.13;;;25.30;42.80;;;-147.20;100.00;58430.41;5093879;28;20134;-18
2022/05/20 09:00:03;;;;;;;2.00;1.85;;;25.30;42.70;;;-147.20;100.00;58430.41;5094319;28;20044;-18
2022/05/20 09:02:28;;;;;;;2.20;2.00;;;25.20;42.70;;;-147.20;100.00;58430.41;5093453;28;20549;-17
2022/05/20 09:04:54;;;;;;;2.35;2.15;;;25.20;42.70;;;-147.20;100.00;58430.41;5093303;28;20135;-17
2022/05/20 09:07:21;;;;;;;2.30;1.92;;;25.20;42.70;;;-147.20;100.00;58430.41;5093662;28;20043;-18
2022/05/20 09:09:56;;;;;;;2.00;1.80;;;25.20;42.80;;;-147.20;100.00;58430.41;5091781;28;20216;-20
2022/05/20 09:12:31;;;;;;;2.20;2.00;;;25.20;42.80;;;-147.20;100.00;58430.41;5093310;28;20123;-17
2022/05/20 09:17:46;;;;;;;2.05;1.90;;;25.20;42.90;;;-147.20;100.00;58430.41;5092781;28;20123;-17
2022/05/20 09:20:17;;;;;;;3.05;2.20;;;25.10;42.90;;;-147.20;100.00;58430.41;5093111;28;20043;-17
2022/05/20 09:22:56;;;;;;;2.10;1.90;;;25.10;43.00;;;-147.20;100.00;58430.41;5093501;28;20422;-19
2022/05/20 09:25:32;;;;;;;2.22;2.03;;;25.00;42.90;;;-147.20;100.00;58430.41;5075145;28;20308;-19
2022/05/20 09:28:30;;;;;;;2.30;2.10;;;25.00;43.00;;;-147.20;100.00;58430.41;5093167;28;20051;-17
2022/05/20 09:31:14;;;;;;;1.90;1.80;;;25.00;43.00;;;-147.20;100.00;58430.41;5074722;28;20105;-18
2022/05/20 09:33:49;;;;;;;1.92;1.70;;;25.00;43.00;;;-147.20;100.00;58430.41;5074771;28;20056;-19
2022/05/20 09:36:34;;;;;;;2.40;2.20;;;25.00;43.00;;;-147.20;100.00;58430.41;5073052;28;20481;-18
2022/05/20 09:39:11;;;;;;;2.10;1.85;;;25.00;43.10;;;-147.20;100.00;58430.41;5093156;28;20388;-18
2022/05/20 09:41:49;;;;;;;3.45;2.03;;;25.00;43.10;;;-147.20;100.00;58430.41;5075387;28;20404;-18
2022/05/20 09:44:19;;;;;;;2.03;1.88;;;25.00;43.10;;;-147.20;100.00;58430.41;5092783;28;20063;-18
2022/05/20 09:46:59;;;;;;;2.83;2.03;;;25.00;43.10;;;-147.20;100.00;58430.41;5092764;28;20083;-19
2022/05/20 09:49:48;;;;;;;2.13;1.92;;;25.00;43.20;;;-147.20;100.00;58430.41;5072743;28;20511;-18
2022/05/20 09:52:32;;;;;;;1.95;1.80;;;25.00;43.50;;;-147.20;100.00;58430.41;5074908;28;20472;-18
2022/05/20 09:55:15;;;;;;;2.30;2.10;;;24.90;43.20;;;-147.20;100.00;58430.41;5093030;28;20067;-18
2022/05/20 09:57:46;;;;;;;2.72;2.28;;;24.90;43.30;;;-147.20;100.00;58430.41;5072528;28;20484;-18
2022/05/20 10:00:26;;;;;;;2.20;2.00;;;24.90;43.30;;;-147.20;100.00;58430.41;5092762;28;20048;-18
2022/05/20 10:03:24;;;;;;;1.80;1.70;;;24.90;43.30;;;-147.20;100.00;58430.41;5073734;28;20625;-18
2022/05/20 10:06:30;;;;;;;1.90;1.80;;;24.90;43.30;;;-147.20;100.00;58430.41;5065577;28;20064;-18
2022/05/20 10:09:10;;;;;;;2.13;1.92;;;24.90;43.30;;;-147.20;100.00;58430.41;5092469;28;20047;-18
2022/05/20 10:12:02;;;;;;;1.92;1.83;;;24.90;43.30;;;-147.20;100.00;58430.41;5074205;28;20049;-18
2022/05/20 10:15:00;;;;;;;;;;;24.90;43.30;;;-147.20;100.00;58430.41;5074695;28;20496;-18
2022/05/20 10:18:01;;;;;;;3.28;1.67;;;24.90;43.30;;;-147.20;100.00;58430.41;5092355;28;19916;-18
2022/05/20 10:20:38;;;;;;;2.23;1.93;;;24.90;43.30;;;-147.20;100.00;58430.41;5092400;28;20052;-18
2022/05/20 10:23:45;;;;;;;1.88;1.77;;;24.90;43.30;;;-147.20;100.00;58430.41;5073333;28;20052;-18
2022/05/20 10:26:48;;;;;;;2.33;2.10;;;24.90;43.40;;;-147.20;100.00;58430.41;5092203;28;20093;-18
2022/05/20 10:32:36;;;;;;;1.83;1.73;;;24.90;43.30;;;-147.20;100.00;58430.41;5089498;28;20131;-18
2022/05/20 10:35:17;;;;;;;1.67;1.58;;;24.90;43.40;;;-147.20;100.00;58430.41;5074771;28;20055;-19
2022/05/20 10:38:11;;;;;;;2.30;2.10;;;24.90;43.40;;;-147.20;100.00;58430.41;5073673;28;20476;-18
2022/05/20 10:40:49;;;;;;;1.98;1.75;;;24.90;43.40;;;-147.20;100.00;58430.41;5093021;28;20468;-18
2022/05/20 10:49:39;;;;;;;1.88;1.67;;;24.90;43.30;;;-147.20;100.00;58430.41;5080138;28;20036;-18
2022/05/20 10:52:41;;;;;;;1.80;1.70;;;24.90;43.30;;;-147.20;100.00;58430.41;5095578;28;20096;-18